Alberton, Canada
Current Conditions -  °F | °C
As of 1:00 PM on Sunday 23 Nov 2014 (Local Time) from CYQM Reporting Station
Scattered Clouds Scattered Clouds  
Wind Chill: 37°   Ceiling: Unl
Heat Index: 43°   Visibility: 15mi
Dew Point: 28°   Wind: 12mph
Humidity: 57%   Direction: 290°WNW
Pressure: 29.98"   Gusts: 17mph
Location:  46.8°N, 64.07°W
Report Text: CYQM 231700Z 29010G15KT 15SM FEW032 SCT050 SCT240 06/M02 A2998 RMK CU1SC2CI1 SLP156
Loading
Personal Weather Stations






























Interactive Weather Map New forecast layout! Learn more

10-Day Weather Forecast

Advertisements
Track Severe Weather on mobile